Terminal Aerodrome Forecast
Issued by NWS

Home | Current Version | Previous Version | Text Only | Print | Product List | Glossary On
Versions: 1 2 3 4 5 6 7 8 9 10 11 12
000
FTUS44 KLZK 290500
TAFLLQ
TAF
KLLQ 290520Z 2906/3006 19010G18KT P6SM SCT250 WS020/28035KT
     FM291000 22009KT P6SM BKN250 WS020/24050KT
     FM291400 25008KT P6SM SCT015 BKN250
     FM291800 34010G18KT P6SM SCT025
     FM300100 36009KT P6SM BKN025=

USA.gov is the U.S. government's official web portal to all federal, state and local government web resources and services.